createdAt,value
2018-09-15T00:01:28.995Z,18.00
2018-09-15T00:03:57.174Z,18.00
2018-09-15T00:06:25.355Z,18.00
2018-09-15T00:08:53.560Z,18.00
2018-09-15T00:11:21.740Z,18.00
2018-09-15T00:13:49.943Z,18.00
2018-09-15T00:16:18.130Z,18.00
2018-09-15T00:18:46.329Z,18.00
2018-09-15T00:21:14.541Z,17.90
2018-09-15T00:23:42.924Z,17.90
2018-09-15T00:26:11.154Z,17.90
2018-09-15T00:28:39.359Z,17.80
2018-09-15T00:31:07.552Z,17.80
2018-09-15T00:33:35.752Z,17.90
2018-09-15T00:36:03.956Z,17.90
2018-09-15T00:38:32.186Z,17.90
2018-09-15T00:41:00.397Z,17.80
2018-09-15T00:43:28.593Z,17.80
2018-09-15T00:45:56.771Z,17.80
2018-09-15T00:48:24.952Z,17.80
2018-09-15T00:50:53.146Z,17.90
2018-09-15T00:53:21.327Z,17.80
2018-09-15T00:55:49.519Z,17.80
2018-09-15T00:58:17.743Z,17.80
2018-09-15T01:00:45.914Z,17.70
2018-09-15T01:03:14.202Z,17.70
2018-09-15T01:05:42.486Z,17.70
2018-09-15T01:08:10.693Z,17.70
2018-09-15T01:10:38.875Z,17.80
2018-09-15T01:13:07.120Z,17.80
2018-09-15T01:15:35.305Z,17.80
2018-09-15T01:18:03.556Z,17.80
2018-09-15T01:20:31.737Z,17.70
2018-09-15T01:22:59.939Z,17.70
2018-09-15T01:25:28.159Z,17.60
2018-09-15T01:27:56.363Z,17.70
2018-09-15T01:30:24.557Z,17.50
2018-09-15T01:32:52.763Z,17.40
2018-09-15T01:35:20.966Z,17.40
2018-09-15T01:37:49.142Z,17.50
2018-09-15T01:40:17.343Z,17.40
2018-09-15T01:42:45.536Z,17.30
2018-09-15T01:45:13.788Z,17.30
2018-09-15T01:47:41.968Z,17.10
2018-09-15T01:50:10.148Z,17.10
2018-09-15T01:52:38.327Z,17.10
2018-09-15T01:55:06.579Z,17.00
2018-09-15T01:57:34.819Z,17.00
2018-09-15T02:00:02.953Z,17.00
2018-09-15T02:02:31.142Z,16.90
2018-09-15T02:04:59.323Z,16.90
2018-09-15T02:07:27.482Z,16.90
2018-09-15T02:09:55.674Z,16.90
2018-09-15T02:12:23.860Z,17.00
2018-09-15T02:14:52.052Z,17.00
2018-09-15T02:17:20.234Z,16.80
2018-09-15T02:19:48.447Z,16.70
2018-09-15T02:22:16.646Z,16.80
2018-09-15T02:24:44.830Z,16.90
2018-09-15T02:27:13.047Z,16.90
2018-09-15T02:29:41.219Z,16.80
2018-09-15T02:32:09.399Z,16.80
2018-09-15T02:34:37.581Z,16.80
2018-09-15T02:37:05.824Z,16.70
2018-09-15T02:39:34.023Z,16.70
2018-09-15T02:42:02.223Z,16.90
2018-09-15T02:44:30.424Z,17.00
2018-09-15T02:46:58.612Z,16.90
2018-09-15T02:49:26.841Z,16.80
2018-09-15T02:51:55.016Z,16.80
2018-09-15T02:54:23.198Z,16.60
2018-09-15T02:56:51.371Z,16.50
2018-09-15T02:59:19.558Z,16.40
2018-09-15T03:01:47.761Z,16.40
2018-09-15T03:04:15.948Z,16.30
2018-09-15T03:06:44.140Z,16.30
2018-09-15T03:09:13.226Z,16.40
2018-09-15T03:11:41.483Z,16.30
2018-09-15T03:14:09.783Z,16.30
2018-09-15T03:16:38.401Z,16.40
2018-09-15T03:19:06.665Z,16.30
2018-09-15T03:21:34.909Z,16.20
2018-09-15T03:24:03.163Z,16.10
2018-09-15T03:26:31.514Z,16.20
2018-09-15T03:28:59.720Z,16.10
2018-09-15T03:31:27.930Z,16.00
2018-09-15T03:33:56.150Z,16.20
2018-09-15T03:36:24.356Z,16.10
2018-09-15T03:38:52.571Z,15.90
2018-09-15T03:41:20.815Z,15.90
2018-09-15T03:43:49.023Z,15.70
2018-09-15T03:46:17.244Z,15.70
2018-09-15T03:48:45.434Z,15.70
2018-09-15T03:51:13.694Z,15.80
2018-09-15T03:53:41.887Z,15.80
2018-09-15T03:56:10.075Z,15.90
2018-09-15T03:58:38.284Z,15.90
2018-09-15T04:01:06.504Z,15.90
2018-09-15T04:03:34.747Z,15.80
2018-09-15T04:06:02.936Z,15.70
2018-09-15T04:08:31.150Z,15.70
2018-09-15T04:10:59.358Z,15.70
2018-09-15T04:13:27.542Z,15.50
2018-09-15T04:15:55.719Z,15.50
2018-09-15T04:18:23.912Z,15.40
2018-09-15T04:20:52.103Z,15.30
2018-09-15T04:23:20.292Z,15.20
2018-09-15T04:25:48.456Z,15.20
2018-09-15T04:28:16.706Z,15.10
2018-09-15T04:30:44.847Z,15.10
2018-09-15T04:33:13.044Z,15.00
2018-09-15T04:35:41.328Z,14.80
2018-09-15T04:38:09.529Z,14.70
2018-09-15T04:40:37.726Z,14.70
2018-09-15T04:43:05.906Z,14.70
2018-09-15T04:45:34.082Z,14.60
2018-09-15T04:48:02.271Z,14.80
2018-09-15T04:50:30.451Z,14.60
2018-09-15T04:52:58.641Z,14.60
2018-09-15T04:55:26.822Z,14.50
2018-09-15T04:57:55.000Z,14.50
2018-09-15T05:00:23.163Z,14.50
2018-09-15T05:02:51.533Z,14.50
2018-09-15T05:05:19.833Z,14.30
2018-09-15T05:07:48.006Z,14.30
2018-09-15T05:10:16.201Z,14.30
2018-09-15T05:12:44.404Z,14.20
2018-09-15T05:15:12.607Z,14.10
2018-09-15T05:17:40.772Z,14.00
2018-09-15T05:20:08.950Z,14.00
2018-09-15T05:22:37.146Z,14.00
2018-09-15T05:25:05.355Z,14.10
2018-09-15T05:27:33.549Z,14.10
2018-09-15T05:30:01.767Z,14.30
2018-09-15T05:32:29.993Z,14.20
2018-09-15T05:34:58.292Z,13.90
2018-09-15T05:37:26.473Z,13.80
2018-09-15T05:39:54.687Z,13.90
2018-09-15T05:42:22.858Z,14.20
2018-09-15T05:44:51.047Z,14.00
2018-09-15T05:47:19.219Z,14.20
2018-09-15T05:49:47.525Z,14.30
2018-09-15T05:52:15.633Z,14.10
2018-09-15T05:54:43.822Z,14.30
2018-09-15T05:57:12.001Z,14.30
2018-09-15T05:59:40.180Z,14.20
2018-09-15T06:02:08.703Z,14.30
2018-09-15T06:04:36.886Z,14.40
2018-09-15T06:07:05.154Z,14.20
2018-09-15T06:09:33.331Z,14.10
2018-09-15T06:12:01.506Z,14.20
2018-09-15T06:14:29.746Z,14.20
2018-09-15T06:16:57.924Z,14.30
2018-09-15T06:19:26.123Z,14.30
2018-09-15T06:21:54.307Z,14.20
2018-09-15T06:24:22.506Z,14.10
2018-09-15T06:26:50.698Z,14.20
2018-09-15T06:29:18.912Z,14.30
2018-09-15T06:31:47.111Z,14.50
2018-09-15T06:34:15.308Z,14.40
2018-09-15T06:36:43.527Z,14.50
2018-09-15T06:39:12.048Z,14.50
2018-09-15T06:41:40.195Z,14.50
2018-09-15T06:44:08.384Z,14.60
2018-09-15T06:46:36.586Z,14.70
2018-09-15T06:49:04.855Z,14.80
2018-09-15T06:51:33.043Z,14.90
2018-09-15T06:54:01.587Z,14.90
2018-09-15T06:56:29.780Z,14.90
2018-09-15T06:58:57.938Z,15.00
2018-09-15T07:01:26.352Z,15.10
2018-09-15T07:03:54.542Z,15.00
2018-09-15T07:06:22.743Z,15.00
2018-09-15T07:08:50.960Z,15.10
2018-09-15T07:11:19.135Z,15.20
2018-09-15T07:13:47.321Z,15.20
2018-09-15T07:16:15.527Z,15.10
2018-09-15T07:18:43.716Z,15.20
2018-09-15T07:21:11.890Z,15.20
2018-09-15T07:23:40.069Z,15.30
2018-09-15T07:26:08.237Z,15.30
2018-09-15T07:28:36.419Z,15.50
2018-09-15T07:31:04.600Z,15.40
2018-09-15T07:33:32.897Z,15.40
2018-09-15T07:36:01.077Z,15.40
2018-09-15T07:38:29.273Z,15.40
2018-09-15T07:40:57.455Z,15.40
2018-09-15T07:43:25.735Z,15.50
2018-09-15T07:45:53.855Z,15.70
2018-09-15T07:48:22.054Z,15.70
2018-09-15T07:50:50.228Z,15.60
2018-09-15T07:53:18.404Z,15.60
2018-09-15T07:55:46.608Z,15.70
2018-09-15T07:58:14.895Z,15.70
2018-09-15T08:00:43.126Z,15.80
2018-09-15T08:03:11.347Z,15.90
2018-09-15T08:05:39.527Z,15.90
2018-09-15T08:08:07.731Z,15.90
2018-09-15T08:10:35.918Z,16.00
2018-09-15T08:13:04.108Z,16.00
2018-09-15T08:15:32.303Z,16.00
2018-09-15T08:18:00.503Z,16.10
2018-09-15T08:20:28.751Z,16.10
2018-09-15T08:22:56.973Z,16.20
2018-09-15T08:25:25.155Z,16.30
2018-09-15T08:27:53.334Z,16.20
2018-09-15T08:30:21.526Z,16.10
2018-09-15T08:32:49.785Z,16.20
2018-09-15T08:35:18.156Z,16.20
2018-09-15T08:37:46.416Z,16.40
2018-09-15T08:40:14.776Z,16.50
2018-09-15T08:42:42.974Z,16.40
2018-09-15T08:45:11.180Z,16.60
2018-09-15T08:47:39.362Z,16.70
2018-09-15T08:50:07.753Z,16.80
2018-09-15T08:52:35.940Z,16.80
2018-09-15T08:55:04.172Z,16.90
2018-09-15T08:57:32.345Z,17.00
2018-09-15T09:00:00.547Z,16.90
2018-09-15T09:02:28.765Z,16.90
2018-09-15T09:04:57.049Z,16.80
2018-09-15T09:07:25.230Z,16.90
2018-09-15T09:09:53.398Z,17.10
2018-09-15T09:12:21.576Z,17.20
2018-09-15T09:14:49.763Z,17.10
2018-09-15T09:17:17.970Z,17.20
2018-09-15T09:19:46.203Z,17.00
2018-09-15T09:22:14.352Z,17.10
2018-09-15T09:24:42.552Z,17.20
2018-09-15T09:27:10.754Z,17.40
2018-09-15T09:29:38.941Z,17.50
2018-09-15T09:32:07.152Z,17.50
2018-09-15T09:34:35.344Z,17.50
2018-09-15T09:37:03.524Z,17.70
2018-09-15T09:39:31.724Z,17.90
2018-09-15T09:41:59.919Z,17.80
2018-09-15T09:44:28.088Z,17.70
2018-09-15T09:46:56.358Z,17.90
2018-09-15T09:49:24.540Z,17.70
2018-09-15T09:51:52.718Z,17.80
2018-09-15T09:54:20.902Z,18.00
2018-09-15T09:56:49.070Z,18.00
2018-09-15T09:59:17.255Z,18.30
2018-09-15T10:01:50.819Z,18.40
2018-09-15T10:04:19.006Z,18.30
2018-09-15T10:06:47.186Z,18.40
2018-09-15T10:09:15.365Z,18.70
2018-09-15T10:11:43.547Z,18.60
2018-09-15T10:14:11.715Z,18.50
2018-09-15T10:16:39.907Z,18.80
2018-09-15T10:19:08.727Z,18.70
2018-09-15T10:21:36.958Z,18.80
2018-09-15T10:24:05.113Z,18.80
2018-09-15T10:26:33.341Z,18.70
2018-09-15T10:29:01.571Z,19.10
2018-09-15T10:31:29.761Z,19.20
2018-09-15T10:33:57.943Z,19.20
2018-09-15T10:36:26.145Z,19.10
2018-09-15T10:38:54.327Z,18.90
2018-09-15T10:41:22.516Z,19.10
2018-09-15T10:43:50.732Z,19.20
2018-09-15T10:46:18.967Z,19.20
2018-09-15T10:48:47.519Z,19.20
2018-09-15T10:51:15.698Z,19.50
2018-09-15T10:53:43.881Z,19.40
2018-09-15T10:56:12.068Z,19.60
2018-09-15T10:58:40.490Z,19.70
2018-09-15T11:01:08.659Z,19.40
2018-09-15T11:03:36.862Z,19.60
2018-09-15T11:06:05.064Z,19.80
2018-09-15T11:08:33.262Z,19.50
2018-09-15T11:11:01.461Z,19.50
2018-09-15T11:13:29.669Z,19.60
2018-09-15T11:15:57.879Z,19.40
2018-09-15T11:18:26.066Z,19.80
2018-09-15T11:20:54.268Z,20.00
2018-09-15T11:23:22.826Z,19.80
2018-09-15T11:25:51.009Z,19.70
2018-09-15T11:28:19.188Z,19.70
2018-09-15T11:30:47.367Z,19.90
2018-09-15T11:33:15.548Z,20.00
2018-09-15T11:35:43.723Z,20.00
2018-09-15T11:38:11.900Z,20.30
2018-09-15T11:40:40.133Z,20.50
2018-09-15T11:43:08.357Z,20.30
2018-09-15T11:45:36.787Z,20.20
2018-09-15T11:48:05.058Z,20.40
2018-09-15T11:50:33.278Z,20.90
2018-09-15T11:53:01.484Z,21.10
2018-09-15T11:55:29.665Z,21.30
2018-09-15T11:57:57.880Z,21.50
2018-09-15T12:00:31.185Z,21.60
2018-09-15T12:02:59.351Z,21.50
2018-09-15T12:05:27.528Z,21.30
2018-09-15T12:07:55.814Z,21.40
2018-09-15T12:10:23.934Z,21.30
2018-09-15T12:12:52.114Z,21.50
2018-09-15T12:15:21.407Z,21.20
2018-09-15T12:17:49.592Z,21.10
2018-09-15T12:20:18.263Z,21.10
2018-09-15T12:22:46.461Z,21.00
2018-09-15T12:25:14.844Z,20.90
2018-09-15T12:27:43.096Z,21.10
2018-09-15T12:30:11.227Z,21.50
2018-09-15T12:32:39.419Z,21.70
2018-09-15T12:35:07.594Z,21.80
2018-09-15T12:37:35.791Z,21.80
2018-09-15T12:40:04.071Z,21.60
2018-09-15T12:42:32.293Z,21.70
2018-09-15T12:45:00.539Z,21.20
2018-09-15T12:47:28.702Z,21.60
2018-09-15T12:49:57.750Z,21.90
2018-09-15T12:52:25.996Z,22.00
2018-09-15T12:54:54.189Z,22.10
2018-09-15T12:57:22.373Z,21.80
2018-09-15T12:59:50.575Z,21.90
2018-09-15T13:02:18.776Z,21.80
2018-09-15T13:04:46.979Z,21.90
2018-09-15T13:07:15.189Z,21.60
2018-09-15T13:09:43.391Z,21.70
2018-09-15T13:12:11.709Z,22.00
2018-09-15T13:14:39.842Z,22.00
2018-09-15T13:17:08.111Z,22.30
2018-09-15T13:19:36.304Z,22.80
2018-09-15T13:22:04.502Z,23.00
2018-09-15T13:24:32.713Z,22.70
2018-09-15T13:27:00.903Z,22.20
2018-09-15T13:29:29.174Z,22.20
2018-09-15T13:31:57.295Z,21.90
2018-09-15T13:34:25.508Z,22.20
2018-09-15T13:36:53.692Z,21.80
2018-09-15T13:39:22.477Z,22.20
2018-09-15T13:41:50.678Z,23.10
2018-09-15T13:44:18.870Z,22.40
2018-09-15T13:46:47.091Z,23.10
2018-09-15T13:49:15.249Z,23.50
2018-09-15T13:51:43.456Z,22.80
2018-09-15T13:54:11.678Z,22.60
2018-09-15T13:56:39.858Z,22.40
2018-09-15T13:59:08.075Z,22.10
2018-09-15T14:01:36.267Z,22.10
2018-09-15T14:04:04.479Z,22.30
2018-09-15T14:06:32.653Z,23.10
2018-09-15T14:09:00.856Z,23.70
2018-09-15T14:11:29.059Z,23.70
2018-09-15T14:13:57.298Z,23.60
2018-09-15T14:16:25.556Z,23.00
2018-09-15T14:18:53.670Z,22.80
2018-09-15T14:21:21.860Z,23.00
2018-09-15T14:23:50.115Z,23.10
2018-09-15T14:26:18.295Z,22.80
2018-09-15T14:28:46.569Z,22.80
2018-09-15T14:31:14.772Z,23.40
2018-09-15T14:33:42.972Z,23.10
2018-09-15T14:36:11.192Z,23.10
2018-09-15T14:38:39.451Z,22.50
2018-09-15T14:41:07.598Z,22.90
2018-09-15T14:43:35.766Z,22.80
2018-09-15T14:46:03.951Z,22.80
2018-09-15T14:48:32.155Z,22.60
2018-09-15T14:51:00.356Z,22.40
2018-09-15T14:53:28.534Z,23.10
2018-09-15T14:55:56.712Z,23.90
2018-09-15T14:58:24.902Z,23.80
2018-09-15T15:00:53.080Z,23.30
2018-09-15T15:03:21.253Z,22.70
2018-09-15T15:05:49.438Z,22.80
2018-09-15T15:08:17.685Z,22.60
2018-09-15T15:10:45.899Z,22.70
2018-09-15T15:13:14.058Z,22.80
2018-09-15T15:15:42.259Z,22.40
2018-09-15T15:18:10.449Z,22.30
2018-09-15T15:20:38.650Z,22.10
2018-09-15T15:23:06.889Z,22.40
2018-09-15T15:25:35.229Z,22.40
2018-09-15T15:28:03.403Z,23.00
2018-09-15T15:30:31.936Z,23.80
2018-09-15T15:33:00.124Z,23.40
2018-09-15T15:35:28.390Z,23.10
2018-09-15T15:37:56.542Z,22.90
2018-09-15T15:40:25.625Z,22.90
2018-09-15T15:42:53.806Z,22.50
2018-09-15T15:45:21.967Z,22.80
2018-09-15T15:47:50.156Z,22.80
2018-09-15T15:50:18.355Z,23.00
2018-09-15T15:52:46.537Z,22.60
2018-09-15T15:55:14.712Z,22.50
2018-09-15T15:57:42.913Z,22.40
2018-09-15T16:00:11.099Z,22.00
2018-09-15T16:02:39.303Z,21.80
2018-09-15T16:05:07.495Z,21.60
2018-09-15T16:07:35.708Z,21.60
2018-09-15T16:10:03.855Z,22.00
2018-09-15T16:12:32.046Z,21.70
2018-09-15T16:15:01.060Z,21.80
2018-09-15T16:17:29.249Z,21.80
2018-09-15T16:19:57.461Z,21.60
2018-09-15T16:22:25.636Z,21.60
2018-09-15T16:24:53.819Z,21.60
2018-09-15T16:27:22.013Z,21.60
2018-09-15T16:29:50.202Z,22.30
2018-09-15T16:32:18.410Z,21.90
2018-09-15T16:34:46.595Z,21.80
2018-09-15T16:37:14.784Z,21.80
2018-09-15T16:39:43.014Z,22.10
2018-09-15T16:42:11.203Z,21.60
2018-09-15T16:44:39.384Z,21.60
2018-09-15T16:47:07.583Z,21.70
2018-09-15T16:49:35.766Z,21.90
2018-09-15T16:52:03.937Z,22.00
2018-09-15T16:54:32.117Z,22.10
2018-09-15T16:57:00.340Z,21.80
2018-09-15T16:59:28.507Z,21.70
2018-09-15T17:01:56.699Z,21.80
2018-09-15T17:04:24.998Z,21.60
2018-09-15T17:06:53.183Z,21.30
2018-09-15T17:09:21.391Z,21.00
2018-09-15T17:11:49.573Z,20.80
2018-09-15T17:14:17.754Z,20.70
2018-09-15T17:16:46.047Z,20.60
2018-09-15T17:19:14.123Z,20.50
2018-09-15T17:21:42.308Z,20.50
2018-09-15T17:24:10.506Z,20.40
2018-09-15T17:26:38.723Z,20.30
2018-09-15T17:29:06.993Z,20.20
2018-09-15T17:34:25.664Z,20.00
2018-09-15T17:36:54.141Z,20.00
2018-09-15T17:39:22.323Z,19.90
2018-09-15T17:41:50.523Z,19.90
2018-09-15T17:44:18.708Z,20.00
2018-09-15T17:46:46.934Z,19.70
2018-09-15T17:49:15.159Z,19.60
2018-09-15T17:51:43.350Z,19.50
2018-09-15T17:54:11.542Z,19.40
2018-09-15T17:56:39.738Z,19.40
2018-09-15T17:59:07.919Z,19.50
2018-09-15T18:01:36.117Z,19.30
2018-09-15T18:04:04.291Z,19.20
2018-09-15T18:06:32.564Z,19.00
2018-09-15T18:09:00.803Z,19.00
2018-09-15T18:11:29.012Z,18.80
2018-09-15T18:13:57.249Z,18.70
2018-09-15T18:16:25.423Z,18.70
2018-09-15T18:18:53.621Z,18.60
2018-09-15T18:21:21.810Z,18.50
2018-09-15T18:23:50.007Z,18.50
2018-09-15T18:26:18.189Z,18.40
2018-09-15T18:28:46.520Z,18.30
2018-09-15T18:31:14.696Z,18.30
2018-09-15T18:33:42.931Z,18.20
2018-09-15T18:36:11.199Z,18.10
2018-09-15T18:38:39.320Z,18.10
2018-09-15T18:41:07.567Z,17.90
2018-09-15T18:43:35.734Z,18.00
2018-09-15T18:46:03.952Z,17.90
2018-09-15T18:48:32.163Z,17.80
2018-09-15T18:51:00.353Z,17.80
2018-09-15T18:53:28.558Z,17.70
2018-09-15T18:55:56.781Z,17.60
2018-09-15T18:58:24.987Z,17.50
2018-09-15T19:00:53.209Z,17.30
2018-09-15T19:03:21.425Z,17.10
2018-09-15T19:05:49.640Z,16.90
2018-09-15T19:08:17.807Z,16.80
2018-09-15T19:10:46.023Z,16.70
2018-09-15T19:13:14.218Z,16.70
2018-09-15T19:15:42.469Z,16.60
2018-09-15T19:18:10.664Z,16.60
2018-09-15T19:20:38.874Z,16.60
2018-09-15T19:23:07.069Z,16.70
2018-09-15T19:25:35.252Z,17.00
2018-09-15T19:28:03.447Z,16.70
2018-09-15T19:30:31.698Z,16.60
2018-09-15T19:32:59.935Z,16.40
2018-09-15T19:35:28.135Z,16.30
2018-09-15T19:37:56.338Z,16.20
2018-09-15T19:40:24.571Z,16.10
2018-09-15T19:42:53.364Z,16.00
2018-09-15T19:45:21.564Z,16.00
2018-09-15T19:47:49.821Z,15.90
2018-09-15T19:50:18.030Z,16.00
2018-09-15T19:52:46.225Z,16.10
2018-09-15T19:55:14.423Z,16.30
2018-09-15T19:57:42.615Z,16.30
2018-09-15T20:00:10.856Z,16.10
2018-09-15T20:02:39.049Z,15.90
2018-09-15T20:05:07.279Z,15.70
2018-09-15T20:07:35.505Z,15.70
2018-09-15T20:10:03.680Z,15.70
2018-09-15T20:12:31.871Z,15.60
2018-09-15T20:15:00.068Z,15.50
2018-09-15T20:17:27.283Z,15.50
2018-09-15T20:19:54.512Z,15.40
2018-09-15T20:22:22.725Z,15.30
2018-09-15T20:24:50.929Z,15.30
2018-09-15T20:27:19.121Z,15.30
2018-09-15T20:29:47.349Z,15.40
2018-09-15T20:32:15.575Z,15.30
2018-09-15T20:34:43.794Z,15.20
2018-09-15T20:37:12.028Z,15.20
2018-09-15T20:39:40.234Z,15.10
2018-09-15T20:42:08.431Z,15.00
2018-09-15T20:44:36.641Z,14.90
2018-09-15T20:47:04.851Z,14.70
2018-09-15T20:49:33.040Z,14.80
2018-09-15T20:52:01.259Z,14.60
2018-09-15T20:54:29.476Z,14.50
2018-09-15T20:56:57.670Z,14.40
2018-09-15T20:59:25.885Z,14.30
2018-09-15T21:01:54.067Z,14.40
2018-09-15T21:04:22.264Z,14.20
2018-09-15T21:06:50.466Z,14.50
2018-09-15T21:09:18.675Z,14.80
2018-09-15T21:11:46.896Z,14.70
2018-09-15T21:14:15.080Z,14.60
2018-09-15T21:16:43.308Z,14.70
2018-09-15T21:19:11.508Z,14.70
2018-09-15T21:21:39.711Z,14.40
2018-09-15T21:24:07.940Z,14.50
2018-09-15T21:26:36.419Z,14.60
2018-09-15T21:29:04.614Z,14.40
2018-09-15T21:31:32.811Z,14.20
2018-09-15T21:34:01.028Z,14.20
2018-09-15T21:36:29.226Z,14.10
2018-09-15T21:38:57.436Z,14.00
2018-09-15T21:41:25.636Z,13.90
2018-09-15T21:43:53.942Z,14.10
2018-09-15T21:46:22.138Z,14.00
2018-09-15T21:48:50.422Z,13.80
2018-09-15T21:51:18.617Z,13.80
2018-09-15T21:53:46.880Z,13.80
2018-09-15T21:56:15.051Z,13.90
2018-09-15T21:58:43.246Z,14.20
2018-09-15T22:01:11.522Z,14.10
2018-09-15T22:03:45.213Z,13.90
2018-09-15T22:06:13.395Z,13.90
2018-09-15T22:08:41.597Z,13.70
2018-09-15T22:11:09.774Z,13.60
2018-09-15T22:13:37.964Z,13.60
2018-09-15T22:16:06.153Z,13.60
2018-09-15T22:18:34.356Z,13.60
2018-09-15T22:21:02.588Z,13.50
2018-09-15T22:23:30.719Z,13.40
2018-09-15T22:25:58.891Z,13.50
2018-09-15T22:28:27.096Z,13.50
2018-09-15T22:30:55.393Z,13.40
2018-09-15T22:33:23.612Z,13.40
2018-09-15T22:35:51.795Z,13.40
2018-09-15T22:38:20.003Z,13.40
2018-09-15T22:40:48.255Z,13.40
2018-09-15T22:43:16.668Z,13.40
2018-09-15T22:45:44.865Z,13.30
2018-09-15T22:48:13.240Z,13.30
2018-09-15T22:50:41.450Z,13.50
2018-09-15T22:53:09.639Z,13.50
2018-09-15T22:55:37.860Z,13.60
2018-09-15T22:58:06.062Z,13.60
2018-09-15T23:00:34.273Z,13.70
2018-09-15T23:03:02.491Z,13.70
2018-09-15T23:05:30.714Z,13.40
2018-09-15T23:07:58.904Z,13.50
2018-09-15T23:10:27.103Z,13.40
2018-09-15T23:12:55.305Z,13.40
2018-09-15T23:15:23.655Z,13.50
2018-09-15T23:17:51.845Z,13.30
2018-09-15T23:20:20.108Z,13.10
2018-09-15T23:22:48.309Z,12.90
2018-09-15T23:25:16.564Z,12.80
2018-09-15T23:27:44.739Z,13.00
2018-09-15T23:30:12.937Z,12.80
2018-09-15T23:32:41.118Z,12.80
2018-09-15T23:35:09.331Z,12.90
2018-09-15T23:37:37.522Z,12.80
2018-09-15T23:40:05.774Z,13.10
2018-09-15T23:42:33.944Z,13.10
2018-09-15T23:45:02.176Z,12.80
2018-09-15T23:47:30.354Z,12.70
2018-09-15T23:49:58.547Z,12.60
2018-09-15T23:52:26.750Z,12.70
2018-09-15T23:54:54.970Z,12.80
2018-09-15T23:57:23.134Z,12.70
2018-09-15T23:59:51.327Z,12.60
